Time;durP1;ratioP1;P1;durP2;ratioP2;P2;SDS_P1;SDS_P2;PMS_P1;PMS_P2;Temp;Humidity;BMP_temperature;BMP_pressure;BME280_temperature;BME280_humidity;BME280_pressure;Samples;Min_cycle;Max_cycle;Signal;HPM_P1;HPM_P2
2021/11/30 00:10:47;;;;;;;4.30;2.53;;;;;;;4.75;100.00;95924.84;4709242;23;20335;-88
2021/11/30 00:13:18;;;;;;;4.10;3.42;;;;;;;4.61;100.00;95904.59;4882724;29;20512;-89
2021/11/30 00:15:52;;;;;;;4.80;3.05;;;;;;;4.69;100.00;95912.88;4859288;29;20053;-90
2021/11/30 00:18:18;;;;;;;4.57;4.00;;;;;;;4.77;100.00;95910.56;4877903;29;20111;-89
2021/11/30 00:20:45;;;;;;;8.50;3.42;;;;;;;4.70;100.00;95893.41;4863058;29;20037;-90
2021/11/30 00:23:11;;;;;;;6.97;4.13;;;;;;;5.15;100.00;95947.78;4855355;29;20123;-91
2021/11/30 00:28:59;;;;;;;7.57;5.32;;;;;;;5.25;100.00;95958.63;4876973;29;20039;-89
2021/11/30 00:31:25;;;;;;;2.60;1.85;;;;;;;5.08;100.00;95945.63;4858680;29;20032;-90
2021/11/30 00:33:50;;;;;;;5.18;3.42;;;;;;;4.99;100.00;95922.38;4853784;29;20413;-92
2021/11/30 00:43:01;;;;;;;3.75;3.40;;;;;;;4.88;100.00;95937.22;4883526;29;20047;-91
2021/11/30 00:46:15;;;;;;;2.30;1.85;;;;;;;4.74;100.00;95896.66;4855943;29;20033;-91
2021/11/30 00:48:41;;;;;;;0.93;0.93;;;;;;;5.11;100.00;95975.41;4863715;29;20044;-90
2021/11/30 00:54:12;;;;;;;2.80;2.60;;;;;;;4.95;100.00;95928.84;4797867;29;20150;-90
2021/11/30 00:56:42;;;;;;;4.72;2.88;;;;;;;5.15;100.00;95966.31;4782615;29;20050;-90
2021/11/30 00:59:08;;;;;;;1.63;1.40;;;;;;;5.11;100.00;95964.81;4867185;29;20452;-89
2021/11/30 01:01:34;;;;;;;1.80;1.30;;;;;;;4.86;100.00;95906.47;4860227;29;20115;-90
2021/11/30 01:04:00;;;;;;;2.70;1.65;;;;;;;5.13;100.00;95952.34;4859714;29;20036;-90
2021/11/30 01:06:26;;;;;;;1.60;1.13;;;;;;;5.03;100.00;95938.00;4850444;29;20072;-90
2021/11/30 01:08:52;;;;;;;1.05;1.05;;;;;;;5.17;100.00;95979.50;4860578;29;20081;-91
2021/11/30 01:11:18;;;;;;;0.90;0.90;;;;;;;4.95;100.00;95942.97;4864338;29;20080;-75
2021/11/30 01:13:44;;;;;;;4.80;0.98;;;;;;;5.05;100.00;95964.38;4892185;29;20032;-90
2021/11/30 01:16:10;;;;;;;2.47;1.42;;;;;;;4.88;100.00;95945.16;4852518;29;20036;-90
2021/11/30 01:18:35;;;;;;;0.50;0.50;;;;;;;4.89;100.00;95954.78;4884090;29;20432;-91
2021/11/30 01:21:01;;;;;;;3.25;1.23;;;;;;;4.97;100.00;95977.28;4873404;29;20035;-91
2021/11/30 01:23:30;;;;;;;0.30;0.30;;;;;;;4.75;100.00;95946.91;4858135;29;20122;-91
2021/11/30 01:25:57;;;;;;;0.82;0.82;;;;;;;4.69;100.00;95931.41;4863896;29;20540;-91
2021/11/30 01:28:23;;;;;;;3.08;2.17;;;;;;;5.03;100.00;95984.81;4861988;29;20025;-92
2021/11/30 01:30:49;;;;;;;2.38;0.90;;;;;;;4.88;100.00;95957.53;4858739;29;20485;-90
2021/11/30 01:33:15;;;;;;;0.80;0.80;;;;;;;4.68;100.00;95940.28;4873901;29;20036;-88
2021/11/30 01:35:44;;;;;;;0.65;0.65;;;;;;;4.77;100.00;95954.72;4869319;29;20029;-90
2021/11/30 01:38:10;;;;;;;0.40;0.40;;;;;;;4.60;100.00;95952.31;4855712;29;20033;-92
2021/11/30 01:40:35;;;;;;;1.40;1.00;;;;;;;4.58;100.00;95970.13;4867777;29;20029;-89
2021/11/30 01:43:04;;;;;;;0.35;0.35;;;;;;;4.48;100.00;95948.66;4868482;29;20123;-89
2021/11/30 01:45:42;;;;;;;0.93;0.93;;;;;;;4.34;100.00;95938.94;4868574;29;20025;-89
2021/11/30 01:51:00;;;;;;;0.70;0.70;;;;;;;4.61;100.00;95973.41;4878531;29;20051;-91
2021/11/30 01:53:26;;;;;;;0.43;0.43;;;;;;;4.29;100.00;95945.47;4865832;29;20037;-91
2021/11/30 01:55:53;;;;;;;0.55;0.55;;;;;;;4.29;100.00;95956.06;4868623;29;20041;-90
2021/11/30 01:58:19;;;;;;;0.25;0.25;;;;;;;4.14;100.00;95955.22;4864401;29;20072;-91
2021/11/30 02:00:46;;;;;;;1.08;0.63;;;;;;;4.06;100.00;95946.09;4860300;29;20092;-91
2021/11/30 02:03:12;;;;;;;0.55;0.55;;;;;;;3.88;100.00;95931.34;4867265;29;20044;-89
2021/11/30 02:05:40;;;;;;;17.98;1.77;;;;;;;3.98;100.00;95953.63;4859664;29;20064;-89
2021/11/30 02:08:07;;;;;;;0.30;0.30;;;;;;;3.94;100.00;95962.72;4858261;29;20607;-90
2021/11/30 02:10:34;;;;;;;1.27;0.90;;;;;;;3.78;100.00;95945.09;4879331;29;20036;-90
2021/11/30 02:13:00;;;;;;;0.30;0.30;;;;;;;3.78;100.00;95950.41;4858071;29;20457;-90
2021/11/30 02:15:27;;;;;;;1.27;0.77;;;;;;;3.72;100.00;95948.13;4857190;29;20120;-90
2021/11/30 02:17:54;;;;;;;0.20;0.20;;;;;;;3.74;100.00;95972.69;4859763;29;20039;-89
2021/11/30 02:20:20;;;;;;;0.68;0.63;;;;;;;3.87;100.00;95966.66;4868199;29;20056;-89
2021/11/30 02:22:57;;;;;;;7.22;0.70;;;;;;;3.66;100.00;95959.06;4858895;29;20439;-91
2021/11/30 02:25:23;;;;;;;0.32;0.32;;;;;;;3.37;100.00;95959.97;4856784;29;20064;-89
2021/11/30 02:27:50;;;;;;;0.50;0.50;;;;;;;3.13;100.00;95959.63;4856709;29;20029;-90
2021/11/30 02:30:16;;;;;;;0.93;0.70;;;;;;;3.41;100.00;96000.28;4865215;29;20043;-89
2021/11/30 02:32:42;;;;;;;0.40;0.40;;;;;;;3.24;100.00;95974.84;4852878;29;20417;-88
2021/11/30 02:35:08;;;;;;;0.20;0.20;;;;;;;3.09;100.00;95966.03;4858661;29;20031;-89
2021/11/30 02:37:42;;;;;;;0.30;0.30;;;;;;;3.12;100.00;95978.19;4852293;29;20455;-90
2021/11/30 02:40:08;;;;;;;2.30;0.40;;;;;;;3.00;100.00;95985.03;4862920;29;20032;-89
2021/11/30 02:42:34;;;;;;;0.28;0.28;;;;;;;2.92;100.00;95991.72;4852467;29;20033;-90
2021/11/30 02:45:00;;;;;;;0.30;0.30;;;;;;;2.96;100.00;95998.50;4852325;29;20021;-91
2021/11/30 02:47:32;;;;;;;0.20;0.20;;;;;;;2.80;100.00;95981.84;4865275;29;20061;-90
2021/11/30 02:49:58;;;;;;;0.30;0.30;;;;;;;2.86;100.00;95987.59;4852404;29;20035;-88
2021/11/30 02:52:27;;;;;;;0.20;0.20;;;;;;;2.64;100.00;95953.69;4856675;29;20113;-92
2021/11/30 02:54:53;;;;;;;0.20;0.20;;;;;;;2.59;100.00;95961.00;4855356;29;20084;-91
2021/11/30 02:57:20;;;;;;;0.17;0.17;;;;;;;2.73;100.00;96011.22;4871483;29;20040;-91
2021/11/30 02:59:48;;;;;;;0.10;0.10;;;;;;;2.30;100.00;95956.50;4858083;29;20037;-91
2021/11/30 03:02:17;;;;;;;0.50;0.50;;;;;;;2.61;100.00;96013.69;4863684;29;20506;-92
2021/11/30 03:04:46;;;;;;;1.45;0.73;;;;;;;2.23;100.00;95978.84;4861588;29;20048;-91
2021/11/30 03:07:15;;;;;;;0.20;0.20;;;;;;;2.23;100.00;95978.84;4870927;29;20052;-91
2021/11/30 03:09:42;;;;;;;0.40;0.40;;;;;;;2.13;100.00;95975.00;4870707;29;20457;-92
2021/11/30 03:12:09;;;;;;;0.20;0.20;;;;;;;2.18;100.00;96020.47;4859450;29;20415;-92
2021/11/30 03:14:35;;;;;;;0.50;0.50;;;;;;;2.16;100.00;95993.28;4852475;29;20033;-90
2021/11/30 03:17:02;;;;;;;0.22;0.22;;;;;;;1.94;100.00;95969.88;4851183;29;20029;-92
2021/11/30 03:19:29;;;;;;;0.55;0.55;;;;;;;2.16;100.00;96024.94;4854096;29;20025;-93
2021/11/30 03:21:55;;;;;;;0.30;0.30;;;;;;;1.92;100.00;95984.94;4864164;29;20123;-93
2021/11/30 03:24:21;;;;;;;0.22;0.22;;;;;;;1.60;100.00;95957.63;4851997;29;20040;-93
2021/11/30 03:26:47;;;;;;;0.20;0.20;;;;;;;1.89;100.00;96018.50;4851511;29;20025;-93
2021/11/30 03:29:13;;;;;;;0.28;0.28;;;;;;;1.81;100.00;96000.47;4850271;29;20060;-94
2021/11/30 03:34:11;;;;;;;0.20;0.20;;;;;;;1.81;100.00;96013.66;4869035;29;20032;-91
2021/11/30 03:36:39;;;;;;;0.30;0.30;;;;;;;1.84;100.00;96007.34;4852940;29;20061;-92
2021/11/30 03:39:07;;;;;;;0.95;0.95;;;;;;;1.76;100.00;96023.56;4853247;29;20029;-91
2021/11/30 03:41:34;;;;;;;0.30;0.30;;;;;;;1.72;100.00;96019.41;4852163;29;20564;-91
2021/11/30 03:44:01;;;;;;;1.40;1.30;;;;;;;1.75;100.00;96021.00;4850951;29;20032;-91
2021/11/30 03:46:28;;;;;;;0.50;0.50;;;;;;;1.81;100.00;96041.78;4856099;29;20036;-91
2021/11/30 03:48:53;;;;;;;0.25;0.25;;;;;;;1.70;100.00;96044.94;4868715;29;20385;-91
2021/11/30 03:51:19;;;;;;;0.43;0.43;;;;;;;1.68;100.00;96030.16;4868997;29;20072;-90
2021/11/30 03:53:45;;;;;;;0.20;0.20;;;;;;;1.56;100.00;96048.31;4858020;29;20048;-92
2021/11/30 03:56:11;;;;;;;0.20;0.20;;;;;;;1.53;100.00;96045.84;4870391;29;20036;-91
2021/11/30 03:58:36;;;;;;;0.30;0.30;;;;;;;1.46;100.00;96046.19;4864141;29;20040;-89
2021/11/30 04:01:16;;;;;;;0.40;0.40;;;;;;;1.42;100.00;96039.38;4855844;29;20500;-90
2021/11/30 04:03:42;;;;;;;0.52;0.52;;;;;;;1.37;100.00;96046.66;4877118;29;20107;-91
2021/11/30 04:06:08;;;;;;;0.30;0.30;;;;;;;1.41;100.00;96059.63;4865441;29;20450;-90
2021/11/30 04:08:37;;;;;;;1.45;1.35;;;;;;;1.42;100.00;96050.78;4859708;29;20043;-87
2021/11/30 04:11:04;;;;;;;0.47;0.47;;;;;;;1.45;100.00;96053.25;4862385;29;20052;-89
2021/11/30 04:13:29;;;;;;;0.28;0.28;;;;;;;1.45;100.00;96050.63;4867152;29;20036;-90
2021/11/30 04:15:55;;;;;;;0.38;0.38;;;;;;;1.43;100.00;96052.47;4870109;29;20436;-90
2021/11/30 04:18:21;;;;;;;0.45;0.45;;;;;;;1.46;100.00;96068.13;4859239;29;20501;-91
2021/11/30 04:20:46;;;;;;;0.32;0.32;;;;;;;1.30;100.00;96048.75;4859676;29;20480;-89
2021/11/30 04:23:12;;;;;;;0.20;0.20;;;;;;;1.40;100.00;96068.44;4853083;29;20128;-89
2021/11/30 04:25:39;;;;;;;0.28;0.28;;;;;;;1.29;100.00;96049.69;4862248;29;20029;-86
2021/11/30 04:28:04;;;;;;;0.75;0.55;;;;;;;1.16;100.00;96042.47;4854053;29;20044;-89
2021/11/30 04:30:30;;;;;;;0.93;0.93;;;;;;;1.22;100.00;96063.22;4866028;29;20107;-87
2021/11/30 04:32:56;;;;;;;1.23;1.17;;;;;;;1.33;100.00;96082.84;4869506;29;20053;-88
2021/11/30 04:35:22;;;;;;;0.30;0.30;;;;;;;1.39;100.00;96095.69;4853308;29;20025;-88
2021/11/30 04:37:47;;;;;;;0.60;0.60;;;;;;;1.38;100.00;96093.16;4854765;29;20564;-88
2021/11/30 04:40:14;;;;;;;0.35;0.35;;;;;;;1.30;100.00;96088.25;4859581;29;20473;-90
2021/11/30 04:42:42;;;;;;;0.30;0.30;;;;;;;1.30;100.00;96098.78;4852413;29;20089;-87
2021/11/30 04:45:21;;;;;;;0.28;0.28;;;;;;;1.35;100.00;96104.69;4859358;29;20044;-89
2021/11/30 04:47:51;;;;;;;0.63;0.63;;;;;;;1.29;100.00;96114.69;4854175;29;20037;-88
2021/11/30 04:50:25;;;;;;;0.40;0.40;;;;;;;1.34;100.00;96117.94;4855091;29;20036;-90
2021/11/30 04:52:53;;;;;;;0.35;0.35;;;;;;;1.34;100.00;96121.41;4871357;29;20029;-89
2021/11/30 04:55:29;;;;;;;0.40;0.40;;;;;;;1.31;100.00;96121.56;4865280;29;20471;-89
2021/11/30 04:58:03;;;;;;;0.95;0.95;;;;;;;1.43;100.00;96133.28;4852403;29;20032;-90
2021/11/30 05:00:30;;;;;;;0.30;0.30;;;;;;;1.38;100.00;96125.63;4848271;29;20040;-87
2021/11/30 05:02:56;;;;;;;0.25;0.25;;;;;;;1.36;100.00;96143.25;4848486;29;20029;-89
2021/11/30 05:05:22;;;;;;;0.77;0.77;;;;;;;1.33;100.00;96140.78;4863760;29;20507;-90
2021/11/30 05:07:48;;;;;;;0.65;0.65;;;;;;;1.46;100.00;96152.44;4880180;29;20025;-89
2021/11/30 05:10:14;;;;;;;0.47;0.47;;;;;;;1.36;100.00;96140.63;4861251;29;20032;-89
2021/11/30 05:12:43;;;;;;;0.22;0.22;;;;;;;1.37;100.00;96146.75;4885158;29;20072;-92
2021/11/30 05:15:09;;;;;;;0.70;0.70;;;;;;;1.43;100.00;96159.63;4853118;29;20164;-91
2021/11/30 05:17:35;;;;;;;0.22;0.22;;;;;;;1.46;100.00;96167.38;4905044;29;20036;-92
2021/11/30 05:20:01;;;;;;;0.32;0.32;;;;;;;1.36;100.00;96155.56;4870364;29;20047;-91
2021/11/30 05:22:28;;;;;;;0.70;0.70;;;;;;;1.40;100.00;96171.16;4899863;29;20096;-90
2021/11/30 05:24:54;;;;;;;1.38;1.27;;;;;;;1.26;100.00;96139.34;4875333;29;20036;-89
2021/11/30 05:27:20;;;;;;;0.75;0.75;;;;;;;1.35;100.00;96164.41;4870468;29;20051;-92
2021/11/30 05:29:46;;;;;;;1.10;1.08;;;;;;;1.39;100.00;96160.69;4879738;29;20143;-89
2021/11/30 05:32:13;;;;;;;1.10;1.00;;;;;;;1.41;100.00;96151.81;4904548;29;20032;-91
2021/11/30 05:34:39;;;;;;;0.50;0.50;;;;;;;1.47;100.00;96164.69;4874440;29;20581;-92
2021/11/30 05:37:46;;;;;;;;;;;;;;;;;;;;;
2021/11/30 05:40:33;;;;;;;1.92;1.83;;;;;;;1.04;100.00;96123.75;4901794;29;20033;-90
2021/11/30 05:43:30;;;;;;;0.60;0.60;;;;;;;1.58;100.00;96209.78;4883028;29;20044;-91
2021/11/30 05:46:45;;;;;;;;;;;;;;;;;;;;;
2021/11/30 05:56:10;;;;;;;0.40;0.40;;;;;;;1.22;100.00;96161.50;4881790;29;20134;-90
2021/11/30 05:59:28;;;;;;;;;;;;;;;;;;;;;
2021/11/30 06:05:34;;;;;;;0.60;0.60;;;;;;;1.12;100.00;96170.75;4863403;29;20090;-91
2021/11/30 06:12:31;;;;;;;;;;;;;;;;;;;;;
2021/11/30 06:51:09;;;;;;;3.53;2.85;;;;;;;1.51;100.00;96340.06;4871892;29;20048;-90
2021/11/30 06:54:36;;;;;;;;;;;;;;;;;;;;;
2021/11/30 06:57:47;;;;;;;;;;;;;;;;;;;;;
2021/11/30 07:17:58;;;;;;;;;;;;;;;;;;;;;
2021/11/30 08:01:44;;;;;;;2.20;2.00;;;;;;;3.05;100.00;96388.81;4806115;29;20031;-90
2021/11/30 08:04:09;;;;;;;1.73;1.60;;;;;;;3.19;100.00;96407.47;4826459;29;20041;-90
2021/11/30 08:06:35;;;;;;;2.70;2.20;;;;;;;3.39;100.00;96439.00;4882575;29;20127;-90
2021/11/30 08:09:00;;;;;;;1.15;0.90;;;;;;;3.16;100.00;96434.06;4868766;29;20118;-91
2021/11/30 08:11:26;;;;;;;1.67;1.55;;;;;;;3.10;100.00;96414.09;4867439;29;20505;-91
2021/11/30 08:13:52;;;;;;;0.70;0.70;;;;;;;3.25;100.00;96437.09;4886254;29;20147;-89
2021/11/30 08:16:17;;;;;;;3.97;1.85;;;;;;;3.33;100.00;96439.31;4879656;29;20029;-89
2021/11/30 08:18:43;;;;;;;2.55;1.98;;;;;;;3.24;100.00;96432.72;4872016;29;20035;-92
2021/11/30 08:21:09;;;;;;;3.03;1.70;;;;;;;3.35;100.00;96481.53;4893731;29;20032;-91
2021/11/30 08:23:39;;;;;;;2.13;1.90;;;;;;;3.34;100.00;96490.38;4882852;29;20036;-91
2021/11/30 08:26:10;;;;;;;2.33;2.13;;;;;;;3.21;100.00;96453.16;4875491;29;20048;-91
2021/11/30 08:28:36;;;;;;;1.75;1.65;;;;;;;3.47;100.00;96476.47;4876175;29;20058;-91
2021/11/30 08:31:02;;;;;;;0.93;0.93;;;;;;;3.36;100.00;96462.94;4878067;29;20483;-90
2021/11/30 08:33:27;;;;;;;3.42;1.63;;;;;;;3.51;100.00;96499.16;4886614;29;20036;-91
2021/11/30 08:35:55;;;;;;;5.47;1.95;;;;;;;3.41;100.00;96500.59;4887168;29;20035;-92
2021/11/30 08:38:21;;;;;;;2.97;1.80;;;;;;;3.56;100.00;96512.16;4886742;29;20535;-91
2021/11/30 08:44:22;;;;;;;2.45;2.25;;;;;;;3.75;100.00;96534.09;4919441;29;20042;-90
2021/11/30 08:47:19;;;;;;;5.38;2.05;;;;;;;3.87;100.00;96541.38;4870619;29;20088;-89
2021/11/30 08:49:45;;;;;;;4.47;2.95;;;;;;;3.86;100.00;96523.78;4882188;29;20044;-91
2021/11/30 08:52:16;;;;;;;6.13;5.32;;;;;;;3.61;100.00;96486.31;4883810;29;20029;-90
2021/11/30 08:58:10;;;;;;;6.95;4.68;;;;;;;3.87;100.00;96504.34;4900322;29;20119;-94
2021/11/30 09:00:37;;;;;;;3.80;3.22;;;;;;;3.99;100.00;96543.38;4868698;29;20519;-92
2021/11/30 09:03:03;;;;;;;3.13;2.35;;;;;;;3.69;100.00;96508.78;4883360;29;20028;-91
2021/11/30 09:05:29;;;;;;;11.10;5.85;;;;;;;3.93;100.00;96548.13;4883050;29;20029;-91
2021/11/30 09:07:56;;;;;;;7.57;4.22;;;;;;;3.92;100.00;96549.06;4863720;29;20051;-85
2021/11/30 09:10:22;;;;;;;3.60;3.30;;;;;;;4.02;100.00;96558.22;4901346;29;20035;-83
2021/11/30 09:12:48;;;;;;;6.22;4.25;;;;;;;4.18;100.00;96559.16;4887739;29;20432;-92
2021/11/30 09:15:14;;;;;;;10.20;6.53;;;;;;;4.34;100.00;96567.97;4894548;29;20051;-91
2021/11/30 09:17:41;;;;;;;3.60;3.30;;;;;;;4.47;100.00;96576.13;4905223;29;20043;-93
2021/11/30 09:20:11;;;;;;;4.93;4.28;;;;;;;4.40;100.00;96558.88;4909155;29;20028;-94
2021/11/30 09:22:37;;;;;;;4.50;4.07;;;;;;;4.05;100.00;96505.16;4895051;29;20058;-94
2021/11/30 09:25:05;;;;;;;9.85;5.80;;;;;;;3.98;100.00;96507.28;4909178;29;20036;-95
2021/11/30 09:27:31;;;;;;;4.75;3.90;;;;;;;4.18;100.00;96561.81;4910692;29;20436;-94
2021/11/30 09:29:57;;;;;;;4.85;2.90;;;;;;;4.35;100.00;96575.84;4873783;29;20032;-87
2021/11/30 09:32:30;;;;;;;4.78;3.97;;;;;;;4.15;100.00;96548.72;4873344;29;20056;-88
2021/11/30 09:34:57;;;;;;;7.75;3.78;;;;;;;4.09;100.00;96535.81;4872006;29;20519;-88
2021/11/30 09:37:24;;;;;;;8.75;5.80;;;;;;;3.85;100.00;96503.56;4879123;29;20035;-89
2021/11/30 09:39:50;;;;;;;7.68;5.85;;;;;;;4.20;100.00;96574.00;4889785;29;20122;-89
2021/11/30 09:42:17;;;;;;;12.07;7.18;;;;;;;4.33;100.00;96596.25;4875694;29;20039;-88
2021/11/30 09:44:45;;;;;;;4.70;3.83;;;;;;;4.29;100.00;96588.53;4884124;29;20044;-88
2021/11/30 09:47:12;;;;;;;4.65;4.25;;;;;;;4.13;100.00;96572.59;4892521;29;20032;-87
2021/11/30 09:49:38;;;;;;;4.60;3.60;;;;;;;4.09;100.00;96570.22;4891015;29;20032;-87
2021/11/30 09:52:04;;;;;;;5.82;3.53;;;;;;;4.13;100.00;96577.91;4876980;29;20107;-87
2021/11/30 09:54:30;;;;;;;5.63;4.78;;;;;;;4.47;100.00;96623.75;4883268;29;20028;-87
2021/11/30 09:56:56;;;;;;;9.95;8.80;;;;;;;4.31;100.00;96586.66;4888153;29;20025;-88
2021/11/30 09:59:21;;;;;;;7.22;4.78;;;;;;;4.53;100.00;96607.56;4872389;29;20476;-87
2021/11/30 10:01:48;;;;;;;6.72;5.13;;;;;;;4.37;100.00;96587.19;4883315;29;20122;-88
2021/11/30 10:04:14;;;;;;;19.17;7.60;;;;;;;4.60;100.00;96604.50;4890006;29;20199;-87
2021/11/30 10:06:40;;;;;;;8.95;7.93;;;;;;;4.47;100.00;96573.47;4874662;29;20548;-86
2021/11/30 10:09:36;;;;;;;13.65;5.03;;;;;;;4.70;100.00;96610.19;4872838;29;20036;-87
2021/11/30 10:12:09;;;;;;;6.97;3.40;;;;;;;4.72;100.00;96606.50;4895913;29;20040;-86
2021/11/30 10:14:41;;;;;;;3.72;3.42;;;;;;;5.04;100.00;96625.94;4885281;29;20052;-86
2021/11/30 10:17:21;;;;;;;3.65;3.35;;;;;;;5.08;100.00;96631.91;4896360;29;20123;-87
2021/11/30 10:20:11;;;;;;;11.52;7.03;;;;;;;5.10;100.00;96622.09;4885453;29;20049;-88
2021/11/30 10:22:50;;;;;;;7.20;4.55;;;;;;;5.30;99.47;96635.94;4883332;29;20452;-86
2021/11/30 10:25:26;;;;;;;6.05;4.60;;;;;;;5.33;95.77;96640.22;4884051;29;20420;-88
2021/11/30 10:27:58;;;;;;;4.60;3.78;;;;;;;5.31;92.27;96623.56;4867084;29;20103;-87
2021/11/30 10:30:26;;;;;;;6.45;3.88;;;;;;;5.12;93.95;96591.91;4881435;29;20132;-88
2021/11/30 10:32:54;;;;;;;4.30;3.33;;;;;;;5.39;97.70;96605.41;4880162;29;20562;-88
2021/11/30 10:35:23;;;;;;;4.70;2.22;;;;;;;5.71;94.60;96623.00;4875021;29;20460;-86
2021/11/30 10:37:49;;;;;;;10.75;6.30;;;;;;;5.96;91.04;96622.47;4893599;29;20039;-87
2021/11/30 10:40:19;;;;;;;15.30;6.07;;;;;;;6.10;88.32;96629.59;4878438;29;20480;-87
2021/11/30 10:42:48;;;;;;;6.15;3.13;;;;;;;6.21;90.71;96627.19;4889344;29;20055;-88
2021/11/30 10:45:36;;;;;;;21.00;12.05;;;;;;;6.47;94.63;96632.63;4888394;29;20032;-87
2021/11/30 10:48:12;;;;;;;9.18;7.65;;;;;;;6.72;91.35;96623.16;4887752;29;20140;-88
2021/11/30 10:50:44;;;;;;;10.73;6.45;;;;;;;6.82;84.19;96632.28;4895696;29;20040;-87
2021/11/30 10:53:14;;;;;;;;;;;;;;;6.84;78.76;96660.47;4892337;29;20040;-87
2021/11/30 10:55:50;;;;;;;1.60;1.45;;;;;;;6.43;75.26;96632.91;4874035;29;19957;-88
2021/11/30 10:58:17;;;;;;;3.92;2.45;;;;;;;6.43;79.73;96612.50;4901927;29;20041;-88
2021/11/30 11:00:43;;;;;;;3.97;2.15;;;;;;;6.50;74.21;96621.81;4872556;29;20071;-87
2021/11/30 11:03:15;;;;;;;3.22;2.53;;;;;;;6.77;77.65;96667.09;4867834;29;20028;-85
2021/11/30 11:05:43;;;;;;;3.10;2.63;;;;;;;6.79;76.88;96665.22;4879897;29;20035;-88
2021/11/30 11:08:19;;;;;;;5.22;2.47;;;;;;;6.32;73.58;96635.34;4885663;29;20335;-88
2021/11/30 11:10:58;;;;;;;2.63;1.90;;;;;;;6.58;82.72;96623.16;4895871;29;20459;-89
2021/11/30 11:13:28;;;;;;;2.25;1.83;;;;;;;6.78;78.47;96660.84;4874386;29;20021;-89
2021/11/30 11:15:59;;;;;;;3.22;2.75;;;;;;;6.44;73.51;96638.13;4864735;29;20420;-88
2021/11/30 11:18:37;;;;;;;3.05;2.58;;;;;;;5.90;75.19;96623.69;4879795;29;20032;-89
2021/11/30 11:21:27;;;;;;;4.53;2.30;;;;;;;5.90;76.93;96666.16;4883653;29;20055;-88
2021/11/30 11:24:05;;;;;;;1.10;0.95;;;;;;;5.77;74.88;96669.53;4899519;29;20054;-89
2021/11/30 11:26:43;;;;;;;1.63;1.15;;;;;;;5.73;79.35;96674.16;4904513;29;20032;-89
2021/11/30 11:29:12;;;;;;;4.85;2.08;;;;;;;5.65;78.86;96622.50;4891269;29;20033;-88
2021/11/30 11:31:46;;;;;;;7.43;1.27;;;;;;;6.00;76.70;96675.25;4891594;29;20028;-88
2021/11/30 11:34:15;;;;;;;1.23;1.17;;;;;;;5.86;73.85;96610.69;4876435;29;20035;-90
2021/11/30 11:36:41;;;;;;;3.53;1.63;;;;;;;6.23;73.47;96646.53;4875628;29;20032;-90
2021/11/30 11:39:07;;;;;;;2.05;1.88;;;;;;;6.37;73.85;96654.50;4887693;29;20036;-90
2021/11/30 11:41:33;;;;;;;1.67;1.58;;;;;;;6.38;71.32;96619.06;4876840;29;20036;-92
2021/11/30 11:43:59;;;;;;;3.58;2.22;;;;;;;7.09;69.93;96617.28;4894805;29;20042;-90
2021/11/30 11:46:27;;;;;;;2.80;1.65;;;;;;;7.76;64.60;96616.44;4874552;29;20036;-90
2021/11/30 11:48:58;;;;;;;3.45;2.00;;;;;;;8.30;63.77;96629.72;4881942;29;20036;-89
2021/11/30 11:51:35;;;;;;;1.85;1.38;;;;;;;8.79;62.03;96622.75;4877247;29;20068;-88
2021/11/30 11:54:01;;;;;;;2.13;1.40;;;;;;;8.75;60.14;96625.72;4872723;29;20060;-89
2021/11/30 11:56:33;;;;;;;1.55;1.00;;;;;;;8.59;62.75;96620.59;4868812;29;20028;-88
2021/11/30 11:59:17;;;;;;;6.70;2.13;;;;;;;8.83;58.97;96624.22;4877403;29;20386;-89
2021/11/30 12:01:46;;;;;;;1.35;1.23;;;;;;;9.08;56.81;96656.22;4877332;29;20127;-89
2021/11/30 12:04:16;;;;;;;0.57;0.55;;;;;;;9.73;56.01;96675.53;4886486;29;20496;-89
2021/11/30 12:06:58;;;;;;;1.23;1.13;;;;;;;11.06;52.38;96616.38;4879497;29;20025;-90
2021/11/30 12:09:41;;;;;;;0.90;0.90;;;;;;;11.16;53.08;96613.84;4890787;29;20448;-92
2021/11/30 12:12:10;;;;;;;0.93;0.90;;;;;;;11.53;51.77;96650.09;4881008;29;20059;-89
2021/11/30 12:14:37;;;;;;;2.08;1.80;;;;;;;11.43;53.39;96684.78;4895335;29;20052;-89
2021/11/30 12:17:16;;;;;;;2.92;1.55;;;;;;;11.26;53.07;96668.34;4887129;29;20139;-88
2021/11/30 12:19:45;;;;;;;5.43;1.60;;;;;;;10.26;53.26;96604.81;4868932;29;20786;-89
2021/11/30 12:22:33;;;;;;;1.15;1.10;;;;;;;10.77;53.62;96673.97;4888173;29;20039;-88
2021/11/30 12:25:04;;;;;;;3.15;1.67;;;;;;;11.17;49.62;96667.25;4885578;29;20072;-87
2021/11/30 12:27:30;;;;;;;0.75;0.75;;;;;;;11.18;50.38;96690.38;4895014;29;20028;-90
2021/11/30 12:29:56;;;;;;;2.97;1.08;;;;;;;9.66;52.24;96644.88;4892949;29;20103;-89
2021/11/30 12:32:28;;;;;;;1.10;0.98;;;;;;;10.32;54.41;96679.19;4864630;29;20119;-89
2021/11/30 12:35:00;;;;;;;1.42;1.00;;;;;;;10.42;52.34;96633.91;4887208;29;20025;-88
2021/11/30 12:37:30;;;;;;;0.93;0.68;;;;;;;10.59;50.81;96667.34;4871747;29;20055;-89
2021/11/30 12:40:14;;;;;;;2.13;1.80;;;;;;;10.24;50.60;96670.03;4875351;29;20035;-89
2021/11/30 12:42:40;;;;;;;2.50;1.20;;;;;;;10.32;52.00;96683.66;4887850;29;20036;-86
2021/11/30 12:45:13;;;;;;;1.23;1.02;;;;;;;10.46;56.28;96682.66;4896582;29;20487;-87
2021/11/30 12:47:41;;;;;;;1.05;0.82;;;;;;;11.14;50.37;96696.91;4884266;29;20032;-87
2021/11/30 12:50:18;;;;;;;1.40;1.27;;;;;;;11.49;50.43;96715.59;4885751;29;20047;-89
2021/11/30 12:52:44;;;;;;;1.77;1.65;;;;;;;10.69;49.31;96636.28;4873922;29;20103;-89
2021/11/30 12:55:10;;;;;;;1.38;1.17;;;;;;;10.74;50.92;96728.56;4872508;29;20040;-86
2021/11/30 12:57:36;;;;;;;2.92;1.55;;;;;;;10.48;49.06;96700.28;4886753;29;20472;-87
2021/11/30 13:00:19;;;;;;;2.05;1.85;;;;;;;10.22;49.77;96710.22;4889100;29;20028;-88
2021/11/30 13:02:47;;;;;;;2.30;1.77;;;;;;;9.85;52.40;96721.00;4878247;29;20036;-87
2021/11/30 13:05:16;;;;;;;0.93;0.70;;;;;;;10.10;51.06;96729.78;4891353;29;20111;-87
2021/11/30 13:07:48;;;;;;;1.65;0.88;;;;;;;10.22;52.54;96762.81;4894333;29;20028;-89
2021/11/30 13:10:19;;;;;;;0.52;0.52;;;;;;;9.85;50.68;96718.31;4895814;29;20508;-88
2021/11/30 13:12:46;;;;;;;4.57;2.58;;;;;;;9.13;51.36;96760.81;4884679;29;20048;-88
2021/11/30 13:15:12;;;;;;;2.85;2.35;;;;;;;8.55;55.08;96784.34;4881972;29;20103;-89
2021/11/30 13:17:38;;;;;;;0.73;0.73;;;;;;;8.11;55.11;96753.44;4888974;29;20036;-86
2021/11/30 13:20:06;;;;;;;2.45;1.20;;;;;;;8.26;56.09;96759.59;4885840;29;20040;-89
2021/11/30 13:22:38;;;;;;;2.67;1.25;;;;;;;8.17;54.88;96746.88;4887495;29;20116;-89
2021/11/30 13:25:10;;;;;;;0.47;0.47;;;;;;;7.56;54.63;96710.03;4897887;29;20183;-89
2021/11/30 13:27:36;;;;;;;4.60;1.65;;;;;;;7.63;55.01;96740.59;4880798;29;20033;-87
2021/11/30 13:30:16;;;;;;;0.90;0.90;;;;;;;7.47;58.00;96771.81;4897040;29;20047;-87
2021/11/30 13:32:43;;;;;;;1.42;0.55;;;;;;;8.01;54.50;96756.78;4894566;29;20036;-86
2021/11/30 13:35:19;;;;;;;2.38;1.33;;;;;;;8.29;56.04;96794.03;4899444;29;20029;-87
2021/11/30 13:37:54;;;;;;;3.08;1.58;;;;;;;8.25;54.16;96795.16;4871320;29;20123;-88
2021/11/30 13:40:54;;;;;;;1.50;1.33;;;;;;;7.91;55.60;96761.84;4893594;29;20035;-88
2021/11/30 13:43:29;;;;;;;1.95;1.75;;;;;;;7.24;57.12;96773.22;4869148;29;20032;-83
2021/11/30 13:46:00;;;;;;;2.90;1.83;;;;;;;7.44;57.02;96795.94;4898934;29;20516;-86
2021/11/30 13:48:30;;;;;;;1.27;1.08;;;;;;;7.28;57.16;96817.28;4870926;29;20377;-88
2021/11/30 13:50:57;;;;;;;1.55;1.45;;;;;;;6.43;57.12;96803.75;4876736;29;20048;-87
2021/11/30 13:53:26;;;;;;;0.80;0.80;;;;;;;5.65;60.62;96787.81;4893297;29;20036;-87
2021/11/30 13:55:56;;;;;;;2.55;1.25;;;;;;;5.75;62.36;96820.84;4891184;29;20062;-88
2021/11/30 13:58:47;;;;;;;2.60;1.83;;;;;;;5.43;64.32;96819.09;4888892;29;20100;-87
2021/11/30 14:01:24;;;;;;;2.83;1.17;;;;;;;5.10;62.49;96831.47;4887867;29;20058;-86
2021/11/30 14:03:55;;;;;;;5.88;0.98;;;;;;;4.79;65.34;96846.28;4879062;29;20039;-88
2021/11/30 14:06:30;;;;;;;0.57;0.57;;;;;;;4.29;66.40;96856.72;4880416;29;20040;-85
2021/11/30 14:09:13;;;;;;;1.65;1.10;;;;;;;3.74;65.82;96861.13;4872072;29;20044;-83
2021/11/30 14:11:46;;;;;;;1.10;0.70;;;;;;;3.27;69.10;96857.97;4885841;29;20032;-86
2021/11/30 14:14:19;;;;;;;3.78;2.08;;;;;;;2.86;71.69;96852.78;4875433;29;20072;-85
2021/11/30 14:16:49;;;;;;;2.65;1.75;;;;;;;2.84;72.43;96862.53;4874482;29;20063;-86
2021/11/30 14:19:15;;;;;;;3.50;2.03;;;;;;;2.56;72.42;96854.91;4875502;29;21853;-87
2021/11/30 14:21:42;;;;;;;0.65;0.57;;;;;;;2.43;73.14;96866.91;4887512;29;20467;-87
2021/11/30 14:24:14;;;;;;;2.38;2.20;;;;;;;2.26;76.91;96866.72;4876259;29;20412;-86